Time,TemperatureF,DewpointF,PressureIn,WindDirection,WindDirectionDegrees,WindSpeedMPH,WindSpeedGustMPH,Humidity,HourlyPrecipIn,Conditions,Clouds,dailyrainin,SoftwareType,DateUTC
2013-05-01 00:02:00,69.0,60.0,29.89,South,173,3.0,8.0,72,0.00,,,0.00,,2013-05-01 05:02:00,
2013-05-01 00:11:00,69.0,60.0,29.89,South,173,3.0,8.0,72,0.00,,,0.00,,2013-05-01 05:11:00,
2013-05-01 00:21:00,69.0,60.0,29.90,South,173,6.0,11.0,73,0.00,,,0.00,,2013-05-01 05:21:00,
2013-05-01 00:32:00,68.0,59.0,29.91,South,173,6.0,12.0,74,0.00,,,0.00,,2013-05-01 05:32:00,
2013-05-01 00:42:00,68.0,59.0,29.91,South,173,6.0,12.0,74,0.00,,,0.00,,2013-05-01 05:42:00,
2013-05-01 00:52:00,68.0,59.0,29.91,South,188,5.0,12.0,74,0.00,,,0.00,,2013-05-01 05:52:00,
2013-05-01 01:02:00,67.0,59.0,29.91,South,181,4.0,13.0,75,0.00,,,0.00,,2013-05-01 06:02:00,
2013-05-01 01:11:00,67.0,59.0,29.91,South,181,4.0,13.0,75,0.00,,,0.00,,2013-05-01 06:11:00,
2013-05-01 01:22:00,67.0,59.0,29.92,South,177,3.0,7.0,76,0.00,,,0.00,,2013-05-01 06:22:00,
2013-05-01 01:32:00,66.0,59.0,29.92,SSW,197,3.0,8.0,77,0.00,,,0.00,,2013-05-01 06:32:00,
2013-05-01 01:42:00,66.0,59.0,29.92,SSW,197,3.0,8.0,77,0.00,,,0.00,,2013-05-01 06:42:00,
2013-05-01 01:52:00,65.0,58.0,29.92,South,171,4.0,8.0,78,0.00,,,0.00,,2013-05-01 06:52:00,
2013-05-01 02:01:00,65.0,59.0,29.92,South,171,2.0,6.0,80,0.00,,,0.00,,2013-05-01 07:01:00,
2013-05-01 02:11:00,65.0,59.0,29.92,South,171,2.0,6.0,80,0.00,,,0.00,,2013-05-01 07:11:00,
2013-05-01 02:21:00,64.0,58.0,29.92,South,179,3.0,6.0,81,0.00,,,0.00,,2013-05-01 07:21:00,
2013-05-01 02:32:00,64.0,58.0,29.92,South,186,2.0,6.0,82,0.00,,,0.00,,2013-05-01 07:32:00,
2013-05-01 02:42:00,64.0,58.0,29.92,South,186,2.0,6.0,82,0.00,,,0.00,,2013-05-01 07:42:00,
2013-05-01 02:52:00,63.0,58.0,29.93,South,177,2.0,4.0,83,0.00,,,0.00,,2013-05-01 07:52:00,
2013-05-01 03:01:00,62.0,57.0,29.93,South,180,2.0,5.0,84,0.00,,,0.00,,2013-05-01 08:01:00,
2013-05-01 03:11:00,62.0,57.0,29.93,South,180,2.0,5.0,84,0.00,,,0.00,,2013-05-01 08:11:00,
2013-05-01 03:22:00,62.0,57.0,29.93,South,185,3.0,6.0,84,0.00,,,0.00,,2013-05-01 08:22:00,
2013-05-01 03:32:00,62.0,57.0,29.93,SSE,166,4.0,6.0,85,0.00,,,0.00,,2013-05-01 08:32:00,
2013-05-01 03:42:00,62.0,57.0,29.93,SSE,166,4.0,6.0,85,0.00,,,0.00,,2013-05-01 08:42:00,
2013-05-01 03:53:00,62.0,57.0,29.94,South,184,2.0,5.0,84,0.00,,,0.00,,2013-05-01 08:53:00,
2013-05-01 04:01:00,62.0,57.0,29.94,South,189,3.0,6.0,84,0.00,,,0.00,,2013-05-01 09:01:00,
2013-05-01 04:11:00,62.0,57.0,29.94,South,189,3.0,6.0,84,0.00,,,0.00,,2013-05-01 09:11:00,
2013-05-01 04:21:00,61.0,57.0,29.95,South,182,2.0,5.0,86,0.00,,,0.00,,2013-05-01 09:21:00,
2013-05-01 04:33:00,61.0,56.0,29.95,SSW,197,2.0,4.0,85,0.00,,,0.00,,2013-05-01 09:33:00,
2013-05-01 04:42:00,61.0,56.0,29.95,SSW,197,2.0,4.0,85,0.00,,,0.00,,2013-05-01 09:42:00,
2013-05-01 04:53:00,61.0,57.0,29.96,South,171,4.0,8.0,86,0.00,,,0.00,,2013-05-01 09:53:00,
2013-05-01 05:02:00,61.0,56.0,29.96,South,189,2.0,6.0,84,0.00,,,0.00,,2013-05-01 10:02:00,
2013-05-01 05:12:00,61.0,56.0,29.96,South,189,2.0,6.0,84,0.00,,,0.00,,2013-05-01 10:12:00,
2013-05-01 05:22:00,61.0,56.0,29.97,South,190,2.0,8.0,85,0.00,,,0.00,,2013-05-01 10:22:00,
2013-05-01 05:33:00,60.0,56.0,29.97,South,178,2.0,5.0,87,0.00,,,0.00,,2013-05-01 10:33:00,
2013-05-01 05:42:00,60.0,56.0,29.97,South,178,2.0,5.0,87,0.00,,,0.00,,2013-05-01 10:42:00,
2013-05-01 05:53:00,60.0,56.0,29.97,South,182,2.0,5.0,87,0.00,,,0.00,,2013-05-01 10:53:00,
2013-05-01 06:02:00,59.0,55.0,29.98,SSE,166,3.0,6.0,88,0.00,,,0.00,,2013-05-01 11:02:00,
2013-05-01 06:11:00,59.0,55.0,29.98,SSE,166,3.0,6.0,88,0.00,,,0.00,,2013-05-01 11:11:00,
2013-05-01 06:22:00,59.0,56.0,29.98,South,176,3.0,5.0,89,0.00,,,0.00,,2013-05-01 11:22:00,
2013-05-01 06:32:00,60.0,56.0,29.99,South,183,2.0,7.0,87,0.00,,,0.00,,2013-05-01 11:32:00,
2013-05-01 06:42:00,60.0,56.0,29.99,South,183,2.0,7.0,87,0.00,,,0.00,,2013-05-01 11:42:00,
2013-05-01 06:51:00,59.0,56.0,30.00,South,176,3.0,6.0,89,0.00,,,0.00,,2013-05-01 11:51:00,
2013-05-01 07:01:00,60.0,56.0,30.00,South,175,3.0,7.0,88,0.00,,,0.00,,2013-05-01 12:01:00,
2013-05-01 07:11:00,60.0,56.0,30.00,South,175,3.0,7.0,88,0.00,,,0.00,,2013-05-01 12:11:00,
2013-05-01 07:21:00,60.0,56.0,30.01,South,169,3.0,6.0,88,0.00,,,0.00,,2013-05-01 12:21:00,
2013-05-01 07:31:00,61.0,57.0,30.01,South,173,3.0,6.0,88,0.00,,,0.00,,2013-05-01 12:31:00,
2013-05-01 07:41:00,61.0,57.0,30.01,South,173,3.0,6.0,88,0.00,,,0.00,,2013-05-01 12:41:00,
2013-05-01 07:51:00,62.0,58.0,30.01,South,182,3.0,6.0,86,0.00,,,0.00,,2013-05-01 12:51:00,
2013-05-01 08:01:00,62.0,58.0,30.01,South,182,3.0,6.0,86,0.00,,,0.00,,2013-05-01 13:01:00,
2013-05-01 08:11:00,62.0,58.0,30.01,South,182,3.0,6.0,86,0.00,,,0.00,,2013-05-01 13:11:00,
2013-05-01 08:21:00,65.0,59.0,30.02,South,172,4.0,7.0,80,0.00,,,0.00,,2013-05-01 13:21:00,
2013-05-01 08:32:00,66.0,59.0,30.02,SSE,167,3.0,7.0,78,0.00,,,0.00,,2013-05-01 13:32:00,
2013-05-01 08:42:00,66.0,59.0,30.02,SSE,167,3.0,7.0,78,0.00,,,0.00,,2013-05-01 13:42:00,
2013-05-01 08:52:00,66.0,59.0,30.02,SSE,167,3.0,7.0,78,0.00,,,0.00,,2013-05-01 13:52:00,
2013-05-01 09:02:00,68.0,60.0,30.02,SSW,192,3.0,6.0,76,0.00,,,0.00,,2013-05-01 14:02:00,
2013-05-01 09:11:00,68.0,60.0,30.02,SSW,192,3.0,6.0,76,0.00,,,0.00,,2013-05-01 14:11:00,
2013-05-01 09:21:00,70.0,61.0,30.03,SSW,197,3.0,7.0,73,0.00,,,0.00,,2013-05-01 14:21:00,
2013-05-01 09:32:00,71.0,61.0,30.03,South,189,2.0,4.0,71,0.00,,,0.00,,2013-05-01 14:32:00,
2013-05-01 09:42:00,71.0,61.0,30.03,South,189,2.0,4.0,71,0.00,,,0.00,,2013-05-01 14:42:00,
2013-05-01 09:51:00,73.0,60.0,30.03,South,177,3.0,7.0,64,0.00,,,0.00,,2013-05-01 14:51:00,
2013-05-01 10:01:00,75.0,61.0,30.03,South,171,3.0,6.0,61,0.00,,,0.00,,2013-05-01 15:01:00,
2013-05-01 10:11:00,75.0,61.0,30.03,South,171,3.0,6.0,61,0.00,,,0.00,,2013-05-01 15:11:00,
2013-05-01 10:21:00,76.0,59.0,30.04,South,179,3.0,8.0,56,0.00,,,0.00,,2013-05-01 15:21:00,
2013-05-01 10:33:00,77.0,59.0,30.04,South,182,4.0,11.0,54,0.00,,,0.00,,2013-05-01 15:33:00,
2013-05-01 10:43:00,77.0,59.0,30.04,South,182,4.0,11.0,54,0.00,,,0.00,,2013-05-01 15:43:00,
2013-05-01 10:53:00,77.0,59.0,30.04,West,271,2.0,8.0,53,0.00,,,0.00,,2013-05-01 15:53:00,
2013-05-01 11:03:00,78.0,59.0,30.04,WSW,242,3.0,10.0,53,0.00,,,0.00,,2013-05-01 16:03:00,
2013-05-01 11:12:00,78.0,59.0,30.04,WSW,242,3.0,10.0,53,0.00,,,0.00,,2013-05-01 16:12:00,
2013-05-01 11:22:00,79.0,58.0,30.04,South,178,3.0,8.0,49,0.00,,,0.00,,2013-05-01 16:22:00,
2013-05-01 11:32:00,80.0,55.0,30.04,South,185,3.0,14.0,43,0.00,,,0.00,,2013-05-01 16:32:00,
2013-05-01 11:42:00,80.0,55.0,30.04,South,185,3.0,14.0,43,0.00,,,0.00,,2013-05-01 16:42:00,
2013-05-01 11:53:00,80.0,55.0,30.04,South,173,4.0,10.0,43,0.00,,,0.00,,2013-05-01 16:53:00,
2013-05-01 12:02:00,80.0,55.0,30.04,SSE,167,3.0,9.0,42,0.00,,,0.00,,2013-05-01 17:02:00,
2013-05-01 12:12:00,80.0,55.0,30.04,SSE,167,3.0,9.0,42,0.00,,,0.00,,2013-05-01 17:12:00,
2013-05-01 12:21:00,81.0,55.0,30.04,South,183,3.0,12.0,41,0.00,,,0.00,,2013-05-01 17:21:00,
2013-05-01 12:32:00,81.0,54.0,30.03,WSW,248,1.0,9.0,40,0.00,,,0.00,,2013-05-01 17:32:00,
2013-05-01 12:42:00,81.0,54.0,30.03,WSW,248,1.0,9.0,40,0.00,,,0.00,,2013-05-01 17:42:00,
2013-05-01 12:52:00,82.0,55.0,30.03,South,191,5.0,10.0,40,0.00,,,0.00,,2013-05-01 17:52:00,
2013-05-01 13:01:00,82.0,53.0,30.03,SSW,195,2.0,8.0,37,0.00,,,0.00,,2013-05-01 18:01:00,
2013-05-01 13:11:00,82.0,53.0,30.03,SSW,195,2.0,8.0,37,0.00,,,0.00,,2013-05-01 18:11:00,
2013-05-01 13:22:00,83.0,55.0,30.02,South,180,3.0,10.0,38,0.00,,,0.00,,2013-05-01 18:22:00,
2013-05-01 13:32:00,83.0,55.0,30.02,SSE,160,2.0,7.0,39,0.00,,,0.00,,2013-05-01 18:32:00,
2013-05-01 13:42:00,83.0,55.0,30.02,SSE,160,2.0,7.0,39,0.00,,,0.00,,2013-05-01 18:42:00,
2013-05-01 13:52:00,83.0,54.0,30.02,SSE,159,3.0,7.0,37,0.00,,,0.00,,2013-05-01 18:52:00,
2013-05-01 14:02:00,83.0,52.0,30.02,SSW,192,6.0,11.0,35,0.00,,,0.00,,2013-05-01 19:02:00,
2013-05-01 14:11:00,83.0,52.0,30.02,SSW,192,6.0,11.0,35,0.00,,,0.00,,2013-05-01 19:11:00,
2013-05-01 14:22:00,83.0,53.0,30.02,SE,144,1.0,9.0,36,0.00,,,0.00,,2013-05-01 19:22:00,
2013-05-01 14:32:00,84.0,54.0,30.02,SSW,205,0.0,7.0,36,0.00,,,0.00,,2013-05-01 19:32:00,
2013-05-01 14:43:00,84.0,54.0,30.02,SSW,205,0.0,7.0,36,0.00,,,0.00,,2013-05-01 19:43:00,
2013-05-01 14:52:00,85.0,54.0,30.03,SE,140,3.0,12.0,35,0.00,,,0.00,,2013-05-01 19:52:00,
2013-05-01 15:01:00,84.0,53.0,30.03,South,173,2.0,11.0,34,0.00,,,0.00,,2013-05-01 20:01:00,
2013-05-01 15:11:00,84.0,53.0,30.03,South,173,2.0,11.0,34,0.00,,,0.00,,2013-05-01 20:11:00,
2013-05-01 15:21:00,84.0,53.0,30.03,South,182,3.0,10.0,34,0.00,,,0.00,,2013-05-01 20:21:00,
2013-05-01 15:32:00,85.0,53.0,30.03,South,171,5.0,9.0,33,0.00,,,0.00,,2013-05-01 20:32:00,
2013-05-01 15:42:00,85.0,53.0,30.03,South,171,5.0,9.0,33,0.00,,,0.00,,2013-05-01 20:42:00,
2013-05-01 15:52:00,85.0,53.0,30.02,South,189,4.0,8.0,33,0.00,,,0.00,,2013-05-01 20:52:00,
2013-05-01 16:01:00,84.0,53.0,30.02,South,181,3.0,10.0,35,0.00,,,0.00,,2013-05-01 21:01:00,
2013-05-01 16:11:00,84.0,53.0,30.02,South,181,3.0,10.0,35,0.00,,,0.00,,2013-05-01 21:11:00,
2013-05-01 16:22:00,84.0,52.0,30.02,South,169,3.0,9.0,33,0.00,,,0.00,,2013-05-01 21:22:00,
2013-05-01 16:32:00,85.0,51.0,30.02,South,174,5.0,11.0,31,0.00,,,0.00,,2013-05-01 21:32:00,
2013-05-01 16:43:00,85.0,51.0,30.02,South,174,5.0,11.0,31,0.00,,,0.00,,2013-05-01 21:43:00,
2013-05-01 16:53:00,85.0,52.0,30.02,SSE,162,4.0,8.0,32,0.00,,,0.00,,2013-05-01 21:53:00,
2013-05-01 17:03:00,84.0,53.0,30.02,South,190,4.0,8.0,34,0.00,,,0.00,,2013-05-01 22:03:00,
2013-05-01 17:12:00,84.0,53.0,30.02,South,190,4.0,8.0,34,0.00,,,0.00,,2013-05-01 22:12:00,
2013-05-01 17:23:00,84.0,53.0,30.02,SSW,198,5.0,10.0,35,0.00,,,0.00,,2013-05-01 22:23:00,
2013-05-01 17:33:00,84.0,51.0,30.02,South,172,5.0,11.0,32,0.00,,,0.00,,2013-05-01 22:33:00,
2013-05-01 17:42:00,84.0,51.0,30.02,South,172,5.0,11.0,32,0.00,,,0.00,,2013-05-01 22:42:00,
2013-05-01 17:52:00,84.0,53.0,30.02,SSW,192,5.0,10.0,35,0.00,,,0.00,,2013-05-01 22:52:00,
2013-05-01 18:02:00,84.0,53.0,30.02,SSE,167,6.0,11.0,34,0.00,,,0.00,,2013-05-01 23:02:00,
2013-05-01 18:12:00,84.0,53.0,30.02,SSE,167,6.0,11.0,34,0.00,,,0.00,,2013-05-01 23:12:00,
2013-05-01 18:21:00,84.0,53.0,30.02,South,190,4.0,9.0,35,0.00,,,0.00,,2013-05-01 23:21:00,
2013-05-01 18:32:00,82.0,52.0,30.02,South,176,3.0,8.0,36,0.00,,,0.00,,2013-05-01 23:32:00,
2013-05-01 18:42:00,82.0,52.0,30.02,South,176,3.0,8.0,36,0.00,,,0.00,,2013-05-01 23:42:00,
2013-05-01 18:52:00,83.0,53.0,30.02,SSE,159,4.0,9.0,36,0.00,,,0.00,,2013-05-01 23:52:00,
2013-05-01 19:01:00,82.0,53.0,30.02,South,181,3.0,8.0,37,0.00,,,0.00,,2013-05-02 00:01:00,
2013-05-01 19:11:00,82.0,53.0,30.02,South,181,3.0,8.0,37,0.00,,,0.00,,2013-05-02 00:11:00,
2013-05-01 19:21:00,81.0,52.0,30.02,South,173,4.0,8.0,37,0.00,,,0.00,,2013-05-02 00:21:00,
2013-05-01 19:32:00,80.0,53.0,30.03,South,185,3.0,8.0,39,0.00,,,0.00,,2013-05-02 00:32:00,
2013-05-01 19:42:00,80.0,53.0,30.03,South,185,3.0,8.0,39,0.00,,,0.00,,2013-05-02 00:42:00,
2013-05-01 19:52:00,79.0,54.0,30.03,South,180,1.0,4.0,42,0.00,,,0.00,,2013-05-02 00:52:00,
2013-05-01 20:01:00,78.0,54.0,30.03,South,171,2.0,5.0,43,0.00,,,0.00,,2013-05-02 01:01:00,
2013-05-01 20:11:00,78.0,54.0,30.03,South,171,2.0,5.0,43,0.00,,,0.00,,2013-05-02 01:11:00,
2013-05-01 20:21:00,76.0,54.0,30.04,South,186,1.0,4.0,47,0.00,,,0.00,,2013-05-02 01:21:00,
2013-05-01 20:32:00,75.0,56.0,30.04,South,184,2.0,5.0,51,0.00,,,0.00,,2013-05-02 01:32:00,
2013-05-01 20:42:00,75.0,56.0,30.04,South,184,2.0,5.0,51,0.00,,,0.00,,2013-05-02 01:42:00,
2013-05-01 20:52:00,73.0,56.0,30.05,South,186,0.0,4.0,55,0.00,,,0.00,,2013-05-02 01:52:00,
2013-05-01 21:02:00,72.0,56.0,30.05,South,190,0.0,3.0,57,0.00,,,0.00,,2013-05-02 02:02:00,
2013-05-01 21:12:00,72.0,56.0,30.05,South,190,0.0,3.0,57,0.00,,,0.00,,2013-05-02 02:12:00,
2013-05-01 21:21:00,71.0,56.0,30.05,South,182,1.0,3.0,59,0.00,,,0.00,,2013-05-02 02:21:00,
2013-05-01 21:32:00,71.0,56.0,30.06,South,174,1.0,4.0,60,0.00,,,0.00,,2013-05-02 02:32:00,
2013-05-01 21:42:00,71.0,56.0,30.06,South,174,1.0,4.0,60,0.00,,,0.00,,2013-05-02 02:42:00,
2013-05-01 21:51:00,71.0,56.0,30.06,South,174,1.0,4.0,60,0.00,,,0.00,,2013-05-02 02:51:00,
2013-05-01 22:01:00,69.0,55.0,30.07,South,173,0.0,2.0,61,0.00,,,0.00,,2013-05-02 03:01:00,
2013-05-01 22:11:00,69.0,55.0,30.07,South,173,0.0,2.0,61,0.00,,,0.00,,2013-05-02 03:11:00,
2013-05-01 22:22:00,68.0,55.0,30.07,South,174,0.0,1.0,63,0.00,,,0.00,,2013-05-02 03:22:00,
2013-05-01 22:33:00,67.0,55.0,30.07,SSW,192,0.0,0.0,66,0.00,,,0.00,,2013-05-02 03:33:00,
2013-05-01 22:43:00,67.0,55.0,30.07,SSW,192,0.0,0.0,66,0.00,,,0.00,,2013-05-02 03:43:00,
2013-05-01 22:53:00,67.0,55.0,30.07,South,184,0.0,1.0,66,0.00,,,0.00,,2013-05-02 03:53:00,
2013-05-01 23:03:00,67.0,56.0,30.07,South,171,0.0,2.0,67,0.00,,,0.00,,2013-05-02 04:03:00,
2013-05-01 23:12:00,67.0,56.0,30.07,South,171,0.0,2.0,67,0.00,,,0.00,,2013-05-02 04:12:00,
2013-05-01 23:23:00,66.0,56.0,30.07,SSE,167,0.0,2.0,69,0.00,,,0.00,,2013-05-02 04:23:00,
2013-05-01 23:33:00,66.0,55.0,30.06,SSE,159,1.0,4.0,68,0.00,,,0.00,,2013-05-02 04:33:00,
2013-05-01 23:42:00,66.0,55.0,30.06,SSE,159,1.0,4.0,68,0.00,,,0.00,,2013-05-02 04:42:00,
2013-05-01 23:52:00,67.0,56.0,30.07,South,176,1.0,4.0,68,0.00,,,0.00,,2013-05-02 04:52:00,